createdAt,value
2018-12-12T00:01:04.913Z,16.23
2018-12-12T00:06:08.991Z,13.77
2018-12-12T00:11:11.341Z,13.67
2018-12-12T00:16:14.009Z,14.37
2018-12-12T00:21:16.069Z,13.73
2018-12-12T00:26:19.255Z,15.07
2018-12-12T00:31:21.450Z,13.37
2018-12-12T00:36:23.694Z,17.40
2018-12-12T00:41:25.753Z,13.33
2018-12-12T00:46:27.805Z,13.87
2018-12-12T00:51:30.326Z,14.47
2018-12-12T00:56:32.403Z,13.20
2018-12-12T01:01:34.562Z,15.43
2018-12-12T01:06:36.605Z,12.10
2018-12-12T01:11:46.005Z,11.67
2018-12-12T01:16:48.057Z,12.93
2018-12-12T01:21:50.637Z,11.27
2018-12-12T01:26:52.931Z,10.73
2018-12-12T01:31:55.110Z,12.97
2018-12-12T01:36:57.366Z,12.47
2018-12-12T01:42:00.381Z,9.47
2018-12-12T01:47:02.660Z,11.90
2018-12-12T01:52:04.845Z,10.67
2018-12-12T01:57:06.910Z,10.17
2018-12-12T02:02:09.069Z,9.43
2018-12-12T02:07:11.438Z,8.03
2018-12-12T02:12:13.754Z,7.20
2018-12-12T02:17:15.917Z,6.77
2018-12-12T02:22:18.145Z,7.93
2018-12-12T02:27:21.145Z,8.53
2018-12-12T02:32:23.293Z,9.70
2018-12-12T02:37:25.848Z,8.37
2018-12-12T02:42:28.157Z,5.90
2018-12-12T02:47:30.403Z,7.47
2018-12-12T02:52:32.588Z,6.80
2018-12-12T02:57:41.602Z,8.30
2018-12-12T03:02:43.911Z,8.00
2018-12-12T03:07:46.168Z,7.90
2018-12-12T03:12:48.253Z,8.13
2018-12-12T03:17:50.333Z,13.10
2018-12-12T03:22:52.406Z,6.60
2018-12-12T03:27:54.463Z,10.73
2018-12-12T03:32:57.003Z,6.73
2018-12-12T03:37:59.061Z,9.20
2018-12-12T03:43:01.247Z,9.53
2018-12-12T03:48:03.704Z,7.70
2018-12-12T03:53:06.008Z,8.93
2018-12-12T03:58:08.050Z,9.80
2018-12-12T04:03:10.102Z,9.10
2018-12-12T04:08:12.313Z,10.90
2018-12-12T04:13:14.593Z,10.50
2018-12-12T04:18:16.937Z,10.63
2018-12-12T04:23:22.047Z,12.27
2018-12-12T04:28:24.126Z,9.20
2018-12-12T04:33:26.317Z,11.57
2018-12-12T04:38:28.652Z,12.13
2018-12-12T04:43:30.702Z,12.47
2018-12-12T04:48:37.813Z,10.60
2018-12-12T04:53:39.879Z,11.20
2018-12-12T04:58:42.049Z,11.67
2018-12-12T05:03:44.331Z,10.97
2018-12-12T05:08:46.454Z,12.93
2018-12-12T05:13:49.644Z,13.97
2018-12-12T05:18:51.712Z,15.03
2018-12-12T05:23:53.975Z,13.73
2018-12-12T05:28:56.267Z,13.77
2018-12-12T05:33:58.433Z,12.03
2018-12-12T05:39:07.405Z,11.77
2018-12-12T05:44:10.682Z,11.40
2018-12-12T05:49:12.874Z,14.97
2018-12-12T05:54:15.069Z,14.13
2018-12-12T05:59:17.257Z,14.43
2018-12-12T06:04:19.360Z,12.77
2018-12-12T06:09:21.737Z,13.20
2018-12-12T06:14:23.845Z,14.27
2018-12-12T06:19:26.006Z,13.70
2018-12-12T06:24:29.174Z,17.67
2018-12-12T06:29:31.362Z,16.03
2018-12-12T06:34:33.514Z,17.37
2018-12-12T06:39:35.755Z,13.73
2018-12-12T06:44:37.814Z,13.73
2018-12-12T06:49:39.981Z,15.07
2018-12-12T06:54:42.197Z,11.87
2018-12-12T06:59:44.293Z,13.43
2018-12-12T07:04:46.581Z,14.20
2018-12-12T07:09:49.382Z,19.37
2018-12-12T07:14:51.466Z,16.90
2018-12-12T07:19:53.673Z,13.70
2018-12-12T07:24:55.849Z,14.63
2018-12-12T07:29:57.889Z,14.63
2018-12-12T07:34:59.937Z,12.30
2018-12-12T07:40:02.210Z,14.27
2018-12-12T07:45:04.480Z,12.90
2018-12-12T07:50:08.869Z,12.80
2018-12-12T07:55:27.881Z,12.47
2018-12-12T08:00:30.901Z,22.30
2018-12-12T08:05:32.944Z,16.80
2018-12-12T08:10:35.145Z,14.87
2018-12-12T08:15:37.201Z,19.27
2018-12-12T08:20:39.237Z,12.30
2018-12-12T08:25:42.430Z,12.83
2018-12-12T08:30:44.593Z,11.43
2018-12-12T08:35:46.854Z,14.00
2018-12-12T08:40:48.930Z,11.07
2018-12-12T08:45:51.277Z,9.93
2018-12-12T08:50:53.931Z,11.57
2018-12-12T08:55:56.370Z,14.77
2018-12-12T09:00:58.429Z,11.43
2018-12-12T09:06:00.521Z,11.10
2018-12-12T09:11:02.857Z,10.83
2018-12-12T09:16:05.153Z,11.30
2018-12-12T09:21:07.309Z,10.87
2018-12-12T09:26:09.407Z,9.77
2018-12-12T09:31:11.732Z,10.47
2018-12-12T09:36:15.789Z,9.83
2018-12-12T09:41:17.957Z,9.97
2018-12-12T09:46:20.134Z,9.00
2018-12-12T09:51:22.289Z,10.90
2018-12-12T09:56:26.530Z,11.80
2018-12-12T10:01:28.710Z,12.93
2018-12-12T10:06:30.880Z,10.43
2018-12-12T10:11:33.050Z,12.77
2018-12-12T10:16:35.266Z,12.33
2018-12-12T10:21:37.422Z,11.60
2018-12-12T10:26:39.741Z,14.60
2018-12-12T10:31:42.026Z,15.70
2018-12-12T10:36:44.114Z,12.67
2018-12-12T10:41:46.593Z,14.77
2018-12-12T10:46:48.653Z,15.50
2018-12-12T10:51:50.939Z,17.90
2018-12-12T10:56:53.032Z,19.23
2018-12-12T11:02:00.981Z,17.00
2018-12-12T11:07:03.314Z,21.03
2018-12-12T11:12:05.633Z,14.63
2018-12-12T11:17:07.785Z,16.47
2018-12-12T11:22:09.881Z,14.47
2018-12-12T11:27:11.969Z,14.93
2018-12-12T11:32:14.017Z,14.07
2018-12-12T11:37:16.289Z,15.67
2018-12-12T11:42:18.614Z,17.17
2018-12-12T11:47:20.665Z,14.80
2018-12-12T11:52:22.717Z,14.63
2018-12-12T11:57:25.224Z,15.23
2018-12-12T12:02:27.453Z,13.87
2018-12-12T12:07:29.884Z,14.03
2018-12-12T12:12:32.013Z,14.60
2018-12-12T12:17:34.163Z,14.33
2018-12-12T12:22:36.222Z,13.70
2018-12-12T12:27:38.302Z,14.10
2018-12-12T12:32:47.457Z,14.97
2018-12-12T12:37:49.617Z,12.17
2018-12-12T12:42:51.785Z,13.97
2018-12-12T12:47:53.977Z,13.60
2018-12-12T12:52:56.026Z,13.33
2018-12-12T12:57:58.073Z,12.20
2018-12-12T13:03:00.271Z,16.53
2018-12-12T13:08:03.153Z,16.43
2018-12-12T13:13:05.638Z,14.67
2018-12-12T13:18:08.341Z,15.17
2018-12-12T13:23:10.501Z,15.00
2018-12-12T13:28:12.885Z,12.33
2018-12-12T13:33:15.181Z,13.63
2018-12-12T13:38:17.229Z,15.07
2018-12-12T13:43:26.213Z,12.23
2018-12-12T13:48:28.286Z,14.17
2018-12-12T13:53:30.558Z,13.63
2018-12-12T13:58:32.654Z,12.60
2018-12-12T14:03:34.740Z,13.03
2018-12-12T14:08:36.973Z,13.23
2018-12-12T14:13:39.211Z,12.07
2018-12-12T14:18:41.270Z,12.63
2018-12-12T14:23:43.385Z,12.10
2018-12-12T14:28:45.424Z,13.77
2018-12-12T14:33:55.701Z,13.00
2018-12-12T14:38:57.784Z,13.77
2018-12-12T14:43:59.826Z,12.83
2018-12-12T14:49:08.969Z,11.90
2018-12-12T14:54:11.141Z,14.43
2018-12-12T14:59:13.968Z,12.27
2018-12-12T15:04:16.199Z,13.83
2018-12-12T15:09:18.281Z,39.77
2018-12-12T15:14:20.397Z,35.83
2018-12-12T15:19:22.450Z,14.40
2018-12-12T15:24:24.553Z,15.30
2018-12-12T15:29:27.542Z,15.50
2018-12-12T15:34:29.711Z,17.83
2018-12-12T15:39:31.954Z,14.60
2018-12-12T15:44:33.997Z,14.77
2018-12-12T15:49:36.095Z,15.70
2018-12-12T15:54:38.367Z,13.00
2018-12-12T15:59:40.478Z,18.47
2018-12-12T16:04:48.815Z,15.40
2018-12-12T16:09:46.738Z,13.87
2018-12-12T16:14:48.833Z,14.33
2018-12-12T16:19:50.882Z,15.43
2018-12-12T16:24:52.937Z,15.97
2018-12-12T16:29:55.034Z,13.80
2018-12-12T16:34:57.122Z,13.83
2018-12-12T16:39:59.297Z,16.97
2018-12-12T16:45:01.460Z,17.83
2018-12-12T16:50:10.570Z,18.73
2018-12-12T16:55:12.888Z,27.27
2018-12-12T17:00:16.306Z,20.53
2018-12-12T17:05:18.595Z,19.20
2018-12-12T17:10:20.903Z,18.50
2018-12-12T17:15:23.078Z,20.10
2018-12-12T17:20:25.345Z,19.20
2018-12-12T17:25:27.421Z,21.50
2018-12-12T17:30:30.102Z,20.43
2018-12-12T17:35:32.193Z,19.07
2018-12-12T17:40:34.261Z,19.80
2018-12-12T17:45:36.641Z,19.50
2018-12-12T17:50:38.841Z,20.20
2018-12-12T17:55:40.886Z,13.07
2018-12-12T18:00:43.061Z,14.67
2018-12-12T18:05:47.280Z,16.10
2018-12-12T18:10:49.459Z,12.63
2018-12-12T18:15:51.503Z,14.97
2018-12-12T18:20:59.406Z,13.37
2018-12-12T18:26:03.678Z,15.97
2018-12-12T18:31:16.165Z,15.43
2018-12-12T18:36:41.287Z,23.93
2018-12-12T18:41:43.809Z,21.87
2018-12-12T18:47:06.830Z,22.20
2018-12-12T18:52:08.888Z,21.93
2018-12-12T18:57:11.069Z,26.80
2018-12-12T19:02:13.428Z,28.97
2018-12-12T19:07:16.786Z,24.10
2018-12-12T19:12:20.293Z,26.87
2018-12-12T19:17:22.449Z,24.27
2018-12-12T19:22:24.617Z,22.33
2018-12-12T19:27:27.206Z,28.23
2018-12-12T19:32:29.261Z,38.17
2018-12-12T19:37:32.236Z,32.23
2018-12-12T19:42:34.658Z,29.73
2018-12-12T19:47:36.814Z,36.87
2018-12-12T19:52:38.968Z,39.33
2018-12-12T19:57:41.249Z,44.30
2018-12-12T20:02:43.406Z,49.30
2018-12-12T20:07:45.709Z,44.63
2018-12-12T20:12:47.905Z,48.30
2018-12-12T20:17:50.064Z,50.40
2018-12-12T20:22:52.485Z,47.67
2018-12-12T20:27:54.628Z,43.07
2018-12-12T20:32:56.673Z,49.33
2018-12-12T20:37:58.934Z,44.67
2018-12-12T20:43:01.122Z,45.73
2018-12-12T20:48:04.357Z,48.67
2018-12-12T20:53:06.560Z,48.53
2018-12-12T20:58:08.625Z,51.23
2018-12-12T21:03:10.669Z,42.00
2018-12-12T21:08:13.189Z,49.13
2018-12-12T21:13:15.250Z,52.17
2018-12-12T21:18:18.600Z,52.13
2018-12-12T21:23:21.853Z,43.03
2018-12-12T21:28:23.945Z,42.23
2018-12-12T21:33:26.105Z,41.97
2018-12-12T21:38:28.237Z,38.87
2018-12-12T21:43:30.277Z,42.53
2018-12-12T21:48:32.326Z,40.13
2018-12-12T21:53:34.384Z,30.33
2018-12-12T21:58:36.548Z,29.70
2018-12-12T22:03:38.697Z,35.63
2018-12-12T22:08:41.037Z,37.17
2018-12-12T22:13:43.225Z,43.50
2018-12-12T22:18:45.382Z,45.83
2018-12-12T22:23:47.409Z,39.57
2018-12-12T22:28:50.016Z,38.80
2018-12-12T22:33:52.174Z,40.63
2018-12-12T22:38:54.369Z,43.07
2018-12-12T22:43:56.554Z,41.40
2018-12-12T22:48:58.620Z,44.43
2018-12-12T22:54:00.666Z,42.33
2018-12-12T22:59:02.909Z,40.30
2018-12-12T23:04:05.195Z,44.60
2018-12-12T23:09:08.181Z,48.97
2018-12-12T23:14:10.282Z,48.13
2018-12-12T23:19:12.466Z,48.00
2018-12-12T23:24:14.525Z,48.77
2018-12-12T23:29:16.608Z,54.87
2018-12-12T23:34:18.661Z,49.47
2018-12-12T23:39:20.721Z,50.90
2018-12-12T23:44:22.961Z,54.87
2018-12-12T23:49:25.217Z,51.00
2018-12-12T23:54:27.253Z,47.77
2018-12-12T23:59:29.453Z,48.20
